sensor_id;sensor_type;location;lat;lon;timestamp;pressure;altitude;pressure_sealevel;temperature;humidity
56040;BME280;43937;41.366;2.072;2023-03-24T00:02:04;100697.72;;;15.00;78.27
56040;BME280;43937;41.366;2.072;2023-03-24T00:14:44;100701.78;;;14.61;78.30
56040;BME280;43937;41.366;2.072;2023-03-24T00:17:12;100688.94;;;14.47;78.73
56040;BME280;43937;41.366;2.072;2023-03-24T00:19:39;100689.88;;;14.54;77.85
56040;BME280;43937;41.366;2.072;2023-03-24T00:23:55;100664.50;;;14.31;77.87
56040;BME280;43937;41.366;2.072;2023-03-24T00:27:07;100703.78;;;14.53;77.91
56040;BME280;43937;41.366;2.072;2023-03-24T00:29:56;100722.34;;;14.57;77.36
56040;BME280;43937;41.366;2.072;2023-03-24T00:42:15;100690.84;;;14.32;78.35
56040;BME280;43937;41.366;2.072;2023-03-24T00:45:01;100697.47;;;14.37;78.84
56040;BME280;43937;41.366;2.072;2023-03-24T00:47:28;100703.63;;;14.46;78.93
56040;BME280;43937;41.366;2.072;2023-03-24T00:51:10;100715.50;;;14.32;79.90
56040;BME280;43937;41.366;2.072;2023-03-24T00:54:53;100697.69;;;14.06;80.93
56040;BME280;43937;41.366;2.072;2023-03-24T00:57:22;100696.53;;;14.15;80.95
56040;BME280;43937;41.366;2.072;2023-03-24T00:59:52;100719.63;;;14.28;81.77
56040;BME280;43937;41.366;2.072;2023-03-24T01:02:31;100694.63;;;14.31;80.92
56040;BME280;43937;41.366;2.072;2023-03-24T01:08:54;100698.47;;;14.51;80.39
56040;BME280;43937;41.366;2.072;2023-03-24T01:14:08;100726.38;;;14.25;81.42
56040;BME280;43937;41.366;2.072;2023-03-24T01:26:48;100703.25;;;14.49;81.66
56040;BME280;43937;41.366;2.072;2023-03-24T01:29:14;100636.69;;;14.12;82.38
56040;BME280;43937;41.366;2.072;2023-03-24T01:32:08;100612.78;;;14.21;81.70
56040;BME280;43937;41.366;2.072;2023-03-24T01:34:34;100654.94;;;14.56;80.94
56040;BME280;43937;41.366;2.072;2023-03-24T01:38:42;100712.41;;;14.71;81.15
56040;BME280;43937;41.366;2.072;2023-03-24T01:46:24;100691.00;;;14.45;81.41
56040;BME280;43937;41.366;2.072;2023-03-24T01:53:44;100675.50;;;14.52;81.59
56040;BME280;43937;41.366;2.072;2023-03-24T02:02:30;100668.22;;;14.59;81.30
56040;BME280;43937;41.366;2.072;2023-03-24T02:05:14;100626.44;;;14.36;81.43
56040;BME280;43937;41.366;2.072;2023-03-24T02:11:27;100669.81;;;14.69;81.02
56040;BME280;43937;41.366;2.072;2023-03-24T02:13:53;100662.38;;;14.62;80.64
56040;BME280;43937;41.366;2.072;2023-03-24T02:47:24;100630.75;;;14.88;79.98
56040;BME280;43937;41.366;2.072;2023-03-24T03:07:30;100642.56;;;14.09;81.48
56040;BME280;43937;41.366;2.072;2023-03-24T03:17:32;100628.31;;;14.14;81.32
56040;BME280;43937;41.366;2.072;2023-03-24T03:24:51;100566.00;;;13.80;81.11
56040;BME280;43937;41.366;2.072;2023-03-24T03:32:45;100623.81;;;13.91;80.88
56040;BME280;43937;41.366;2.072;2023-03-24T03:41:09;100607.53;;;13.83;81.38
56040;BME280;43937;41.366;2.072;2023-03-24T03:47:11;100542.22;;;13.29;81.87
56040;BME280;43937;41.366;2.072;2023-03-24T03:49:37;100516.84;;;13.20;81.90
56040;BME280;43937;41.366;2.072;2023-03-24T03:53:19;100609.22;;;13.69;82.38
56040;BME280;43937;41.366;2.072;2023-03-24T03:57:08;100607.53;;;13.68;83.28
56040;BME280;43937;41.366;2.072;2023-03-24T04:00:33;100607.34;;;13.70;83.09
56040;BME280;43937;41.366;2.072;2023-03-24T04:11:38;100596.84;;;13.73;83.61
56040;BME280;43937;41.366;2.072;2023-03-24T04:28:04;100588.31;;;13.47;87.69
56040;BME280;43937;41.366;2.072;2023-03-24T04:37:41;100414.34;;;12.35;88.61
56040;BME280;43937;41.366;2.072;2023-03-24T04:42:34;100610.66;;;13.50;88.74
56040;BME280;43937;41.366;2.072;2023-03-24T04:45:02;100577.56;;;13.31;88.94
56040;BME280;43937;41.366;2.072;2023-03-24T04:49:04;100605.28;;;13.57;89.09
56040;BME280;43937;41.366;2.072;2023-03-24T04:51:30;100615.06;;;13.37;90.92
56040;BME280;43937;41.366;2.072;2023-03-24T04:53:57;100589.84;;;13.35;90.67
56040;BME280;43937;41.366;2.072;2023-03-24T05:03:33;100603.59;;;13.56;91.67
56040;BME280;43937;41.366;2.072;2023-03-24T05:07:52;100575.50;;;13.33;91.02
56040;BME280;43937;41.366;2.072;2023-03-24T05:12:08;100554.19;;;13.13;90.41
56040;BME280;43937;41.366;2.072;2023-03-24T05:15:44;100619.91;;;13.35;90.70
56040;BME280;43937;41.366;2.072;2023-03-24T05:18:10;100583.28;;;13.21;90.65
56040;BME280;43937;41.366;2.072;2023-03-24T05:23:12;100586.22;;;13.19;90.45
56040;BME280;43937;41.366;2.072;2023-03-24T05:25:38;100603.59;;;13.26;90.31
56040;BME280;43937;41.366;2.072;2023-03-24T05:33:02;100540.56;;;12.75;90.44
56040;BME280;43937;41.366;2.072;2023-03-24T05:35:28;100626.25;;;13.12;90.73
56040;BME280;43937;41.366;2.072;2023-03-24T05:39:25;100628.03;;;13.05;90.30
56040;BME280;43937;41.366;2.072;2023-03-24T05:42:24;100617.25;;;12.89;91.04
56040;BME280;43937;41.366;2.072;2023-03-24T05:45:30;100639.88;;;12.97;91.04
56040;BME280;43937;41.366;2.072;2023-03-24T05:47:56;100634.50;;;13.04;90.67
56040;BME280;43937;41.366;2.072;2023-03-24T05:53:19;100613.81;;;13.24;89.16
56040;BME280;43937;41.366;2.072;2023-03-24T06:00:05;100624.50;;;13.49;87.56
56040;BME280;43937;41.366;2.072;2023-03-24T06:02:40;100642.72;;;13.71;86.43
56040;BME280;43937;41.366;2.072;2023-03-24T06:15:34;100640.56;;;14.54;81.41
56040;BME280;43937;41.366;2.072;2023-03-24T06:18:56;100633.59;;;14.52;80.46
56040;BME280;43937;41.366;2.072;2023-03-24T06:21:21;100583.69;;;14.13;79.75
56040;BME280;43937;41.366;2.072;2023-03-24T06:25:47;100668.25;;;14.44;78.73
56040;BME280;43937;41.366;2.072;2023-03-24T06:28:15;100668.09;;;14.31;79.14
56040;BME280;43937;41.366;2.072;2023-03-24T06:33:45;100654.31;;;14.25;78.35
56040;BME280;43937;41.366;2.072;2023-03-24T06:43:44;100641.59;;;13.81;78.92
56040;BME280;43937;41.366;2.072;2023-03-24T06:47:39;100685.59;;;14.15;78.37
56040;BME280;43937;41.366;2.072;2023-03-24T06:50:51;100693.41;;;14.18;77.91
56040;BME280;43937;41.366;2.072;2023-03-24T06:53:51;100658.50;;;14.20;77.72
56040;BME280;43937;41.366;2.072;2023-03-24T06:59:00;100679.28;;;16.68;69.52
56040;BME280;43937;41.366;2.072;2023-03-24T07:04:13;100667.44;;;23.08;48.20
56040;BME280;43937;41.366;2.072;2023-03-24T07:09:18;100654.38;;;26.08;40.16
56040;BME280;43937;41.366;2.072;2023-03-24T07:11:44;100680.22;;;25.46;41.61
56040;BME280;43937;41.366;2.072;2023-03-24T07:15:31;100652.13;;;24.88;41.16
56040;BME280;43937;41.366;2.072;2023-03-24T07:18:42;100686.50;;;26.11;40.06
56040;BME280;43937;41.366;2.072;2023-03-24T07:21:08;100679.94;;;28.42;35.74
56040;BME280;43937;41.366;2.072;2023-03-24T07:25:16;100660.19;;;28.02;34.65
56040;BME280;43937;41.366;2.072;2023-03-24T07:27:44;100686.22;;;29.12;33.26
56040;BME280;43937;41.366;2.072;2023-03-24T07:30:10;100685.75;;;29.05;32.80
56040;BME280;43937;41.366;2.072;2023-03-24T07:36:21;100679.28;;;30.64;31.35
56040;BME280;43937;41.366;2.072;2023-03-24T07:41:14;100702.72;;;30.35;30.28
56040;BME280;43937;41.366;2.072;2023-03-24T07:53:33;100658.81;;;27.74;32.78
56040;BME280;43937;41.366;2.072;2023-03-24T07:55:58;100695.44;;;28.68;31.99
56040;BME280;43937;41.366;2.072;2023-03-24T07:58:39;100690.91;;;28.77;31.03
56040;BME280;43937;41.366;2.072;2023-03-24T08:02:59;100685.81;;;30.84;28.32
56040;BME280;43937;41.366;2.072;2023-03-24T08:05:27;100705.72;;;32.46;27.19
56040;BME280;43937;41.366;2.072;2023-03-24T08:10:41;100702.88;;;33.10;25.87
56040;BME280;43937;41.366;2.072;2023-03-24T08:19:46;100718.38;;;34.77;24.33
56040;BME280;43937;41.366;2.072;2023-03-24T08:27:26;100684.94;;;30.83;28.22
56040;BME280;43937;41.366;2.072;2023-03-24T08:31:33;100711.81;;;31.27;27.96
56040;BME280;43937;41.366;2.072;2023-03-24T08:48:37;100720.50;;;28.99;30.73
56040;BME280;43937;41.366;2.072;2023-03-24T08:54:54;100704.13;;;27.00;33.93
56040;BME280;43937;41.366;2.072;2023-03-24T08:57:32;100719.22;;;27.04;33.78
56040;BME280;43937;41.366;2.072;2023-03-24T09:01:21;100714.91;;;26.08;35.24
56040;BME280;43937;41.366;2.072;2023-03-24T09:16:34;100727.84;;;25.44;36.88
56040;BME280;43937;41.366;2.072;2023-03-24T09:18:59;100716.75;;;25.49;36.63
56040;BME280;43937;41.366;2.072;2023-03-24T09:31:03;100710.44;;;26.01;36.27
56040;BME280;43937;41.366;2.072;2023-03-24T09:46:47;100732.75;;;26.49;37.38
56040;BME280;43937;41.366;2.072;2023-03-24T09:52:20;100740.13;;;26.86;37.47
56040;BME280;43937;41.366;2.072;2023-03-24T09:59:50;100733.28;;;25.98;41.96
56040;BME280;43937;41.366;2.072;2023-03-24T10:02:18;100751.97;;;25.98;41.85
56040;BME280;43937;41.366;2.072;2023-03-24T10:04:44;100754.06;;;26.18;43.18
56040;BME280;43937;41.366;2.072;2023-03-24T10:07:31;100746.47;;;26.13;42.52
56040;BME280;43937;41.366;2.072;2023-03-24T10:13:25;100741.22;;;26.80;42.37
56040;BME280;43937;41.366;2.072;2023-03-24T10:17:22;100742.28;;;26.68;43.18
56040;BME280;43937;41.366;2.072;2023-03-24T10:28:25;100721.16;;;26.93;39.68
56040;BME280;43937;41.366;2.072;2023-03-24T10:30:55;100738.72;;;26.83;41.31
56040;BME280;43937;41.366;2.072;2023-03-24T10:47:34;100691.31;;;27.29;38.55
56040;BME280;43937;41.366;2.072;2023-03-24T10:57:16;100706.63;;;27.01;35.86
56040;BME280;43937;41.366;2.072;2023-03-24T11:07:34;100710.44;;;28.33;36.34
56040;BME280;43937;41.366;2.072;2023-03-24T11:10:36;100712.47;;;28.17;37.72
56040;BME280;43937;41.366;2.072;2023-03-24T11:15:25;100712.78;;;27.95;39.50
56040;BME280;43937;41.366;2.072;2023-03-24T11:18:20;100687.38;;;27.81;39.09
56040;BME280;43937;41.366;2.072;2023-03-24T11:22:02;100697.66;;;28.71;37.05
56040;BME280;43937;41.366;2.072;2023-03-24T11:24:28;100714.88;;;29.04;36.48
56040;BME280;43937;41.366;2.072;2023-03-24T11:29:19;100704.00;;;28.43;38.75
56040;BME280;43937;41.366;2.072;2023-03-24T11:31:56;100705.09;;;28.37;38.48
56040;BME280;43937;41.366;2.072;2023-03-24T11:35:16;100705.22;;;28.11;38.77
56040;BME280;43937;41.366;2.072;2023-03-24T11:40:58;100711.16;;;27.69;38.45
56040;BME280;43937;41.366;2.072;2023-03-24T11:45:43;100709.97;;;26.98;39.66
56040;BME280;43937;41.366;2.072;2023-03-24T11:48:31;100675.59;;;26.72;39.95
56040;BME280;43937;41.366;2.072;2023-03-24T11:51:00;100715.00;;;26.91;39.28
56040;BME280;43937;41.366;2.072;2023-03-24T11:53:33;100706.66;;;27.47;39.46
56040;BME280;43937;41.366;2.072;2023-03-24T11:56:40;100711.88;;;26.77;39.85
56040;BME280;43937;41.366;2.072;2023-03-24T12:00:03;100713.13;;;27.43;37.76
56040;BME280;43937;41.366;2.072;2023-03-24T12:03:07;100717.28;;;27.66;37.62
56040;BME280;43937;41.366;2.072;2023-03-24T12:13:50;100703.91;;;28.58;34.84
56040;BME280;43937;41.366;2.072;2023-03-24T12:19:05;100698.88;;;29.05;32.69
56040;BME280;43937;41.366;2.072;2023-03-24T12:33:28;100677.69;;;28.34;31.89
56040;BME280;43937;41.366;2.072;2023-03-24T12:48:46;100658.75;;;29.43;31.42
56040;BME280;43937;41.366;2.072;2023-03-24T12:58:01;100650.09;;;28.66;34.07
56040;BME280;43937;41.366;2.072;2023-03-24T13:00:34;100652.78;;;28.87;34.37
56040;BME280;43937;41.366;2.072;2023-03-24T13:03:04;100628.59;;;27.97;35.41
56040;BME280;43937;41.366;2.072;2023-03-24T13:05:43;100658.41;;;28.27;36.59
56040;BME280;43937;41.366;2.072;2023-03-24T13:09:52;100649.28;;;27.96;36.68
56040;BME280;43937;41.366;2.072;2023-03-24T13:16:21;100649.97;;;27.42;38.52
56040;BME280;43937;41.366;2.072;2023-03-24T13:18:53;100653.03;;;27.40;37.18
56040;BME280;43937;41.366;2.072;2023-03-24T13:30:11;100645.31;;;28.17;36.15
56040;BME280;43937;41.366;2.072;2023-03-24T13:34:31;100673.66;;;28.60;35.19
56040;BME280;43937;41.366;2.072;2023-03-24T13:37:02;100664.97;;;28.62;34.34
56040;BME280;43937;41.366;2.072;2023-03-24T13:40:37;100672.84;;;28.60;35.51
56040;BME280;43937;41.366;2.072;2023-03-24T13:49:05;100679.66;;;28.28;33.82
56040;BME280;43937;41.366;2.072;2023-03-24T13:54:29;100660.00;;;27.22;24.58
56040;BME280;43937;41.366;2.072;2023-03-24T14:24:14;100681.03;;;26.41;25.73
56040;BME280;43937;41.366;2.072;2023-03-24T14:26:42;100662.50;;;26.10;25.40
56040;BME280;43937;41.366;2.072;2023-03-24T14:29:37;100707.22;;;26.25;25.25
56040;BME280;43937;41.366;2.072;2023-03-24T14:33:33;100635.50;;;25.73;25.85
56040;BME280;43937;41.366;2.072;2023-03-24T14:36:58;100704.59;;;25.66;25.91
56040;BME280;43937;41.366;2.072;2023-03-24T14:50:20;100679.59;;;26.23;25.86
56040;BME280;43937;41.366;2.072;2023-03-24T14:52:56;100693.84;;;26.32;25.29
56040;BME280;43937;41.366;2.072;2023-03-24T14:58:03;100695.00;;;26.46;25.37
56040;BME280;43937;41.366;2.072;2023-03-24T15:00:35;100704.03;;;26.64;25.00
56040;BME280;43937;41.366;2.072;2023-03-24T15:12:27;100704.06;;;26.74;25.20
56040;BME280;43937;41.366;2.072;2023-03-24T15:25:09;100709.22;;;27.38;24.70
56040;BME280;43937;41.366;2.072;2023-03-24T15:27:36;100686.28;;;27.36;24.77
56040;BME280;43937;41.366;2.072;2023-03-24T15:30:12;100704.13;;;27.10;25.58
56040;BME280;43937;41.366;2.072;2023-03-24T15:34:25;100722.22;;;26.87;26.15
56040;BME280;43937;41.366;2.072;2023-03-24T15:38:32;100700.75;;;26.87;26.22
56040;BME280;43937;41.366;2.072;2023-03-24T15:41:08;100726.41;;;26.74;25.87
56040;BME280;43937;41.366;2.072;2023-03-24T15:43:52;100731.19;;;26.89;25.31
56040;BME280;43937;41.366;2.072;2023-03-24T15:54:35;100732.53;;;23.46;46.75
56040;BME280;43937;41.366;2.072;2023-03-24T15:57:24;100747.22;;;23.29;47.93
56040;BME280;43937;41.366;2.072;2023-03-24T16:02:55;100729.59;;;22.50;50.65
56040;BME280;43937;41.366;2.072;2023-03-24T16:07:20;100751.34;;;22.06;53.20
56040;BME280;43937;41.366;2.072;2023-03-24T16:10:35;100754.00;;;22.12;53.56
56040;BME280;43937;41.366;2.072;2023-03-24T16:16:57;100747.38;;;21.43;55.83
56040;BME280;43937;41.366;2.072;2023-03-24T16:20:38;100727.88;;;21.61;55.50
56040;BME280;43937;41.366;2.072;2023-03-24T16:23:03;100752.69;;;21.26;57.33
56040;BME280;43937;41.366;2.072;2023-03-24T16:48:45;100737.09;;;19.54;63.65
56040;BME280;43937;41.366;2.072;2023-03-24T16:52:16;100753.78;;;19.41;64.36
56040;BME280;43937;41.366;2.072;2023-03-24T16:57:51;100775.47;;;19.37;64.91
56040;BME280;43937;41.366;2.072;2023-03-24T17:02:11;100779.19;;;18.86;65.72
56040;BME280;43937;41.366;2.072;2023-03-24T17:13:53;100800.59;;;18.26;69.05
56040;BME280;43937;41.366;2.072;2023-03-24T17:21:10;100815.59;;;18.43;69.16
56040;BME280;43937;41.366;2.072;2023-03-24T17:23:37;100825.50;;;18.64;69.33
56040;BME280;43937;41.366;2.072;2023-03-24T17:27:15;100840.88;;;18.20;71.70
56040;BME280;43937;41.366;2.072;2023-03-24T17:34:52;100837.47;;;17.72;73.19
56040;BME280;43937;41.366;2.072;2023-03-24T17:44:36;100853.81;;;17.73;73.14
56040;BME280;43937;41.366;2.072;2023-03-24T17:51:01;100901.38;;;17.34;75.39
56040;BME280;43937;41.366;2.072;2023-03-24T17:55:41;100854.53;;;17.21;74.97
56040;BME280;43937;41.366;2.072;2023-03-24T17:59:41;100882.78;;;17.49;74.16
56040;BME280;43937;41.366;2.072;2023-03-24T18:08:22;100899.59;;;17.13;75.42
56040;BME280;43937;41.366;2.072;2023-03-24T18:12:36;100922.03;;;17.10;76.30
56040;BME280;43937;41.366;2.072;2023-03-24T18:15:03;100927.28;;;17.05;76.86
56040;BME280;43937;41.366;2.072;2023-03-24T18:17:31;100912.41;;;16.92;76.89
56040;BME280;43937;41.366;2.072;2023-03-24T18:22:54;100943.91;;;16.90;77.82
56040;BME280;43937;41.366;2.072;2023-03-24T18:26:43;100927.22;;;16.91;77.51
56040;BME280;43937;41.366;2.072;2023-03-24T18:29:09;100932.31;;;16.94;77.72
56040;BME280;43937;41.366;2.072;2023-03-24T18:31:35;100929.03;;;16.78;78.25
56040;BME280;43937;41.366;2.072;2023-03-24T18:34:00;100923.78;;;16.55;78.66
56040;BME280;43937;41.366;2.072;2023-03-24T18:42:44;100898.06;;;16.62;78.00
56040;BME280;43937;41.366;2.072;2023-03-24T18:46:16;100967.00;;;16.96;77.63
56040;BME280;43937;41.366;2.072;2023-03-24T18:48:42;100968.59;;;16.77;78.42
56040;BME280;43937;41.366;2.072;2023-03-24T18:51:08;100973.59;;;16.73;78.64
56040;BME280;43937;41.366;2.072;2023-03-24T18:53:34;100952.13;;;16.55;79.36
56040;BME280;43937;41.366;2.072;2023-03-24T18:56:00;100963.13;;;16.55;79.77
56040;BME280;43937;41.366;2.072;2023-03-24T18:58:26;100993.00;;;16.65;79.54
56040;BME280;43937;41.366;2.072;2023-03-24T19:00:53;100991.59;;;16.76;78.98
56040;BME280;43937;41.366;2.072;2023-03-24T19:03:21;100997.03;;;16.69;79.91
56040;BME280;43937;41.366;2.072;2023-03-24T19:05:48;101002.59;;;16.47;81.10
56040;BME280;43937;41.366;2.072;2023-03-24T19:10:24;101010.06;;;16.60;81.07
56040;BME280;43937;41.366;2.072;2023-03-24T19:12:49;100984.41;;;16.46;80.51
56040;BME280;43937;41.366;2.072;2023-03-24T19:16:44;101006.19;;;16.48;81.26
56040;BME280;43937;41.366;2.072;2023-03-24T19:19:09;101023.09;;;16.52;80.89
56040;BME280;43937;41.366;2.072;2023-03-24T19:23:52;101035.41;;;16.56;81.39
56040;BME280;43937;41.366;2.072;2023-03-24T19:26:44;101040.34;;;16.67;80.80
56040;BME280;43937;41.366;2.072;2023-03-24T19:29:11;101034.66;;;16.68;80.31
56040;BME280;43937;41.366;2.072;2023-03-24T19:31:36;101049.00;;;16.64;79.98
56040;BME280;43937;41.366;2.072;2023-03-24T19:37:59;101046.66;;;16.61;80.52
56040;BME280;43937;41.366;2.072;2023-03-24T19:41:47;101056.34;;;16.78;79.48
56040;BME280;43937;41.366;2.072;2023-03-24T19:46:11;101072.25;;;16.83;79.60
56040;BME280;43937;41.366;2.072;2023-03-24T19:50:31;101066.84;;;16.75;80.17
56040;BME280;43937;41.366;2.072;2023-03-24T19:52:56;101072.97;;;16.48;81.37
56040;BME280;43937;41.366;2.072;2023-03-24T19:55:22;101082.50;;;16.74;79.84
56040;BME280;43937;41.366;2.072;2023-03-24T19:59:37;101088.75;;;16.83;79.18
56040;BME280;43937;41.366;2.072;2023-03-24T20:07:18;101077.34;;;16.64;79.67
56040;BME280;43937;41.366;2.072;2023-03-24T20:10:44;101095.09;;;16.83;79.50
56040;BME280;43937;41.366;2.072;2023-03-24T20:18:35;101129.25;;;16.96;79.22
56040;BME280;43937;41.366;2.072;2023-03-24T20:21:41;101120.59;;;16.99;78.47
56040;BME280;43937;41.366;2.072;2023-03-24T20:25:11;101127.28;;;17.17;77.14
56040;BME280;43937;41.366;2.072;2023-03-24T20:27:37;101094.56;;;16.94;77.33
56040;BME280;43937;41.366;2.072;2023-03-24T20:30:04;101140.84;;;17.19;77.56
56040;BME280;43937;41.366;2.072;2023-03-24T20:34:38;101140.25;;;16.96;78.72
56040;BME280;43937;41.366;2.072;2023-03-24T20:37:04;101146.63;;;17.03;78.59
56040;BME280;43937;41.366;2.072;2023-03-24T20:39:30;101150.84;;;16.99;78.26
56040;BME280;43937;41.366;2.072;2023-03-24T20:43:59;101145.88;;;17.15;77.83
56040;BME280;43937;41.366;2.072;2023-03-24T20:46:24;101150.63;;;17.00;78.46
56040;BME280;43937;41.366;2.072;2023-03-24T20:50:53;101125.31;;;16.83;79.06
56040;BME280;43937;41.366;2.072;2023-03-24T20:53:19;101156.44;;;17.12;78.28
56040;BME280;43937;41.366;2.072;2023-03-24T20:55:58;101153.50;;;17.13;78.36
56040;BME280;43937;41.366;2.072;2023-03-24T21:01:15;101141.25;;;16.73;79.47
56040;BME280;43937;41.366;2.072;2023-03-24T21:03:49;101162.50;;;17.01;79.59
56040;BME280;43937;41.366;2.072;2023-03-24T21:06:15;101171.66;;;17.08;78.37
56040;BME280;43937;41.366;2.072;2023-03-24T21:08:42;101166.53;;;17.05;78.66
56040;BME280;43937;41.366;2.072;2023-03-24T21:21:51;101179.13;;;16.92;78.61
56040;BME280;43937;41.366;2.072;2023-03-24T21:24:50;101177.63;;;16.90;78.67
56040;BME280;43937;41.366;2.072;2023-03-24T21:29:13;101173.22;;;16.74;79.60
56040;BME280;43937;41.366;2.072;2023-03-24T21:33:43;101179.84;;;17.01;79.12
56040;BME280;43937;41.366;2.072;2023-03-24T21:43:34;101170.03;;;16.92;77.74
56040;BME280;43937;41.366;2.072;2023-03-24T21:46:54;101177.63;;;16.90;78.10
56040;BME280;43937;41.366;2.072;2023-03-24T21:52:12;101192.63;;;16.87;78.59
56040;BME280;43937;41.366;2.072;2023-03-24T21:58:52;101213.25;;;16.98;77.41
56040;BME280;43937;41.366;2.072;2023-03-24T22:02:12;101217.28;;;17.02;77.19
56040;BME280;43937;41.366;2.072;2023-03-24T22:04:39;101197.53;;;16.92;77.02
56040;BME280;43937;41.366;2.072;2023-03-24T22:12:19;101236.22;;;16.90;77.31
56040;BME280;43937;41.366;2.072;2023-03-24T22:16:54;101216.16;;;16.75;77.37
56040;BME280;43937;41.366;2.072;2023-03-24T22:19:20;101227.72;;;16.85;77.14
56040;BME280;43937;41.366;2.072;2023-03-24T22:22:55;101230.59;;;16.77;77.14
56040;BME280;43937;41.366;2.072;2023-03-24T22:27:00;101220.22;;;16.79;76.94
56040;BME280;43937;41.366;2.072;2023-03-24T22:30:45;101217.59;;;16.71;77.10
56040;BME280;43937;41.366;2.072;2023-03-24T22:34:45;101239.06;;;16.82;76.41
56040;BME280;43937;41.366;2.072;2023-03-24T22:38:54;101223.22;;;16.63;76.60
56040;BME280;43937;41.366;2.072;2023-03-24T22:50:52;101225.59;;;16.51;76.77
56040;BME280;43937;41.366;2.072;2023-03-24T22:53:17;101220.56;;;16.55;76.59
56040;BME280;43937;41.366;2.072;2023-03-24T22:55:43;101228.56;;;16.49;76.80
56040;BME280;43937;41.366;2.072;2023-03-24T22:58:10;101234.25;;;16.48;76.90
56040;BME280;43937;41.366;2.072;2023-03-24T23:01:57;101242.41;;;16.41;77.14
56040;BME280;43937;41.366;2.072;2023-03-24T23:04:23;101151.59;;;15.92;77.24
56040;BME280;43937;41.366;2.072;2023-03-24T23:09:27;101236.63;;;16.36;77.21
56040;BME280;43937;41.366;2.072;2023-03-24T23:12:29;101235.59;;;16.37;77.39
56040;BME280;43937;41.366;2.072;2023-03-24T23:14:55;101219.78;;;16.24;77.41
56040;BME280;43937;41.366;2.072;2023-03-24T23:17:21;101249.94;;;16.18;77.90
56040;BME280;43937;41.366;2.072;2023-03-24T23:23:08;101249.47;;;16.14;77.74
56040;BME280;43937;41.366;2.072;2023-03-24T23:32:19;101246.03;;;16.12;78.31
56040;BME280;43937;41.366;2.072;2023-03-24T23:42:00;101191.81;;;15.70;77.82
56040;BME280;43937;41.366;2.072;2023-03-24T23:47:31;101249.56;;;16.06;77.99
56040;BME280;43937;41.366;2.072;2023-03-24T23:57:01;101193.03;;;15.67;78.21
